Time;durP1;ratioP1;P1;durP2;ratioP2;P2;SDS_P1;SDS_P2;PMS_P1;PMS_P2;Temp;Humidity;BMP_temperature;BMP_pressure;BME280_temperature;BME280_humidity;BME280_pressure;Samples;Min_cycle;Max_cycle;Signal;HPM_P1;HPM_P2
2023/06/08 00:01:58;;;;;;;12.30;3.20;;;;;;;29.39;33.61;100312.25;5002547;28;20129;-70
2023/06/08 00:04:30;;;;;;;9.10;2.70;;;;;;;29.54;35.00;100320.31;5000507;28;20058;-74
2023/06/08 00:06:59;;;;;;;8.13;2.85;;;;;;;29.55;34.59;100314.91;5000406;28;20039;-72
2023/06/08 00:09:28;;;;;;;9.95;3.22;;;;;;;29.61;34.10;100313.69;5003282;28;20053;-72
2023/06/08 00:11:58;;;;;;;10.00;2.60;;;;;;;29.69;33.56;100313.28;4999281;28;20074;-72
2023/06/08 00:14:28;;;;;;;8.32;2.50;;;;;;;29.78;33.72;100318.09;4995842;28;20416;-71
2023/06/08 00:16:57;;;;;;;8.75;2.50;;;;;;;29.89;33.49;100320.13;5000265;28;20073;-70
2023/06/08 00:19:26;;;;;;;11.98;2.30;;;;;;;29.92;33.48;100310.16;5002897;28;20053;-71
2023/06/08 00:21:56;;;;;;;10.93;3.03;;;;;;;29.93;33.20;100306.53;4999919;28;20038;-73
2023/06/08 00:24:28;;;;;;;11.02;2.70;;;;;;;29.93;32.87;100311.03;4993306;28;20056;-73
2023/06/08 00:26:56;;;;;;;13.20;2.50;;;;;;;29.91;33.65;100311.09;4996707;28;20133;-73
2023/06/08 00:29:31;;;;;;;12.30;2.70;;;;;;;29.85;33.24;100317.66;5015327;28;20057;-71
2023/06/08 00:32:03;;;;;;;10.27;2.75;;;;;;;29.78;33.63;100313.63;5011399;28;20450;-72
2023/06/08 00:34:32;;;;;;;11.70;2.83;;;;;;;29.78;33.92;100307.41;5022870;28;20049;-70
2023/06/08 00:37:01;;;;;;;11.10;2.78;;;;;;;29.73;33.85;100307.69;5022865;28;20049;-72
2023/06/08 00:39:29;;;;;;;10.48;2.75;;;;;;;29.70;33.62;100305.19;5008840;28;20185;-72
2023/06/08 00:41:58;;;;;;;12.52;2.47;;;;;;;29.62;33.81;100308.28;5010991;28;20419;-72
2023/06/08 00:44:31;;;;;;;11.10;2.53;;;;;;;29.62;34.07;100302.09;5022895;28;20060;-70
2023/06/08 00:47:01;;;;;;;11.90;3.20;;;;;;;29.55;33.70;100308.69;5012013;28;20091;-67
2023/06/08 00:49:33;;;;;;;11.57;2.22;;;;;;;29.54;34.46;100312.34;5020283;28;20777;-72
2023/06/08 00:52:05;;;;;;;12.35;3.40;;;;;;;29.50;34.64;100310.78;5015633;28;20049;-72
2023/06/08 00:54:39;;;;;;;13.02;2.70;;;;;;;29.50;34.76;100316.97;5024034;28;20491;-70
2023/06/08 00:57:09;;;;;;;14.43;2.47;;;;;;;29.52;34.41;100311.56;5018713;28;20054;-72
2023/06/08 00:59:38;;;;;;;10.57;2.95;;;;;;;29.56;33.78;100316.63;5026025;28;20052;-71
2023/06/08 01:02:10;;;;;;;10.50;2.70;;;;;;;29.59;33.74;100312.91;5028915;28;20569;-71
2023/06/08 01:04:39;;;;;;;8.15;2.25;;;;;;;29.58;34.44;100311.22;5019650;28;20136;-72
2023/06/08 01:07:25;;;;;;;13.70;2.78;;;;;;;29.57;34.34;100306.81;5025228;28;20045;-72
2023/06/08 01:09:59;;;;;;;11.70;2.47;;;;;;;29.58;33.99;100300.56;5024580;28;20057;-73
2023/06/08 01:12:35;;;;;;;10.95;2.58;;;;;;;29.54;33.44;100299.00;5014495;28;20274;-73
2023/06/08 01:15:14;;;;;;;7.82;2.20;;;;;;;29.42;33.44;100296.09;5019945;28;20053;-72
2023/06/08 01:17:52;;;;;;;10.90;2.95;;;;;;;29.33;34.36;100301.94;5019473;28;20057;-77
2023/06/08 01:20:32;;;;;;;6.60;2.33;;;;;;;29.34;35.05;100303.63;5015789;28;20056;-73
2023/06/08 01:23:10;;;;;;;8.77;2.55;;;;;;;29.34;34.14;100303.63;5022234;28;20096;-71
2023/06/08 01:25:45;;;;;;;10.88;2.80;;;;;;;29.36;33.51;100314.22;5022844;28;20137;-72
2023/06/08 01:28:14;;;;;;;16.73;2.65;;;;;;;29.35;33.73;100309.84;5026833;28;20053;-72
2023/06/08 01:30:43;;;;;;;10.73;2.08;;;;;;;29.30;34.19;100312.78;5024619;28;20086;-71
2023/06/08 01:33:14;;;;;;;11.05;2.15;;;;;;;29.29;34.45;100315.50;5021877;28;20049;-72
2023/06/08 01:35:43;;;;;;;15.57;2.33;;;;;;;29.25;34.42;100317.47;5023663;28;20535;-72
2023/06/08 01:38:19;;;;;;;10.18;2.20;;;;;;;29.27;34.34;100318.25;5020804;28;20061;-71
2023/06/08 01:40:55;;;;;;;9.70;2.47;;;;;;;29.29;33.84;100319.03;5028265;28;20507;-73
2023/06/08 01:43:27;;;;;;;7.38;2.63;;;;;;;29.28;34.31;100320.00;5024424;28;20103;-73
2023/06/08 01:46:01;;;;;;;10.23;2.20;;;;;;;29.27;33.95;100320.91;5023398;28;20045;-73
2023/06/08 01:48:32;;;;;;;6.85;2.10;;;;;;;29.23;34.35;100314.91;5023011;28;20109;-72
2023/06/08 01:51:01;;;;;;;8.73;2.50;;;;;;;29.14;34.58;100322.56;5018158;28;20053;-72
2023/06/08 01:53:32;;;;;;;12.20;2.80;;;;;;;29.06;34.89;100320.25;5022943;28;20045;-74
2023/06/08 01:56:02;;;;;;;10.02;2.40;;;;;;;29.02;34.40;100319.59;5027003;28;20060;-75
2023/06/08 01:58:31;;;;;;;5.70;2.92;;;;;;;28.97;34.49;100326.94;5027501;28;20049;-73
2023/06/08 02:00:59;;;;;;;7.40;2.08;;;;;;;28.95;35.59;100336.81;5030406;28;20060;-75
2023/06/08 02:03:28;;;;;;;5.53;2.42;;;;;;;28.92;36.06;100336.13;5030987;28;20046;-75
2023/06/08 02:05:56;;;;;;;9.75;2.58;;;;;;;28.90;36.53;100340.69;5022037;28;20483;-73
2023/06/08 02:08:25;;;;;;;9.52;2.83;;;;;;;28.85;36.58;100332.94;5020832;28;20057;-75
2023/06/08 02:10:54;;;;;;;9.23;3.10;;;;;;;28.82;37.17;100349.09;5016663;28;21292;-73
2023/06/08 02:13:24;;;;;;;9.98;2.83;;;;;;;28.75;37.03;100353.03;5017762;28;20208;-76
2023/06/08 02:15:55;;;;;;;11.45;3.42;;;;;;;28.63;36.80;100358.97;5019622;28;20053;-73
2023/06/08 02:18:25;;;;;;;14.85;2.65;;;;;;;28.50;37.27;100358.75;5024230;28;20049;-74
2023/06/08 02:20:53;;;;;;;6.93;2.10;;;;;;;28.38;36.96;100366.41;5023777;28;20595;-75
2023/06/08 02:23:22;;;;;;;11.88;3.00;;;;;;;28.24;37.48;100366.22;5020864;28;20053;-75
2023/06/08 02:25:52;;;;;;;9.05;2.45;;;;;;;28.22;37.99;100383.19;5024671;28;20054;-74
2023/06/08 02:28:35;;;;;;;12.13;2.80;;;;;;;28.11;38.36;100386.41;5027762;28;20851;-75
2023/06/08 02:31:04;;;;;;;7.85;2.38;;;;;;;28.06;37.92;100386.63;4999527;28;20407;-74
2023/06/08 02:33:33;;;;;;;12.00;2.83;;;;;;;28.02;37.95;100390.38;4996006;28;20053;-73
2023/06/08 02:36:09;;;;;;;12.10;2.42;;;;;;;27.94;37.68;100393.38;4994776;28;20050;-75
2023/06/08 02:38:39;;;;;;;13.27;2.97;;;;;;;27.84;37.82;100397.44;4999509;28;20065;-73
2023/06/08 02:41:08;;;;;;;9.90;2.38;;;;;;;27.71;37.65;100404.22;4993582;28;20042;-73
2023/06/08 02:43:38;;;;;;;8.05;2.28;;;;;;;27.55;37.85;100406.75;5003030;28;20050;-74
2023/06/08 02:46:09;;;;;;;10.95;2.15;;;;;;;27.40;38.02;100418.06;4997670;28;20068;-74
2023/06/08 02:48:38;;;;;;;10.65;2.63;;;;;;;27.23;38.12;100414.41;5001440;28;20060;-73
2023/06/08 02:51:07;;;;;;;10.05;2.97;;;;;;;27.07;38.13;100416.84;5006104;28;20049;-75
2023/06/08 02:53:35;;;;;;;12.43;3.10;;;;;;;26.90;38.62;100425.56;5001590;28;20550;-73
2023/06/08 02:56:07;;;;;;;14.75;3.22;;;;;;;26.73;38.84;100417.44;5002221;28;20520;-73
2023/06/08 02:58:37;;;;;;;11.95;2.85;;;;;;;26.59;39.52;100420.69;5001647;28;20543;-74
2023/06/08 03:01:14;;;;;;;10.82;2.88;;;;;;;26.42;39.56;100413.44;5006270;28;20388;-75
2023/06/08 03:03:43;;;;;;;11.90;3.17;;;;;;;26.27;39.54;100427.31;4993644;28;20050;-77
2023/06/08 03:06:14;;;;;;;5.97;2.17;;;;;;;26.12;39.99;100427.03;5000447;28;20049;-74
2023/06/08 03:08:42;;;;;;;12.57;2.97;;;;;;;26.00;40.00;100422.22;4998996;28;20101;-73
2023/06/08 03:11:11;;;;;;;9.35;2.50;;;;;;;25.84;40.45;100429.03;4997205;28;20511;-75
2023/06/08 03:13:41;;;;;;;14.18;2.78;;;;;;;25.70;40.63;100438.38;4991213;28;20181;-75
2023/06/08 03:16:10;;;;;;;12.85;2.90;;;;;;;25.60;41.19;100444.91;4996620;28;20050;-74
2023/06/08 03:18:39;;;;;;;9.40;2.45;;;;;;;25.53;41.19;100447.88;5005347;28;20089;-74
2023/06/08 03:21:12;;;;;;;12.45;2.88;;;;;;;25.42;40.82;100448.25;5001710;28;20060;-76
2023/06/08 03:23:40;;;;;;;13.55;2.58;;;;;;;25.31;41.25;100456.59;4997738;28;20077;-77
2023/06/08 03:26:09;;;;;;;8.27;2.45;;;;;;;25.21;41.83;100464.00;4999813;28;20527;-75
2023/06/08 03:28:37;;;;;;;14.38;2.28;;;;;;;25.05;41.68;100466.28;5010312;28;20064;-73
2023/06/08 03:31:08;;;;;;;13.38;2.67;;;;;;;24.72;42.03;100470.13;5019482;28;20084;-76
2023/06/08 03:33:36;;;;;;;10.85;2.78;;;;;;;24.51;42.45;100476.97;5013317;28;20057;-74
2023/06/08 03:36:05;;;;;;;11.18;2.25;;;;;;;24.38;42.55;100485.28;5020114;28;20492;-77
2023/06/08 03:38:34;;;;;;;9.63;2.47;;;;;;;24.31;42.70;100491.69;5019174;28;20057;-74
2023/06/08 03:41:02;;;;;;;10.68;2.38;;;;;;;24.18;42.83;100485.91;5020960;28;20104;-78
2023/06/08 03:43:31;;;;;;;9.63;2.97;;;;;;;24.02;43.27;100490.78;5021358;28;20053;-77
2023/06/08 03:45:59;;;;;;;18.30;3.70;;;;;;;23.89;43.18;100492.09;5028315;28;20465;-74
2023/06/08 03:48:29;;;;;;;13.20;2.60;;;;;;;23.47;43.75;100497.66;5021916;28;20128;-74
2023/06/08 03:50:58;;;;;;;9.85;2.58;;;;;;;23.34;44.50;100512.09;5018653;28;20053;-74
2023/06/08 03:53:27;;;;;;;12.48;2.35;;;;;;;23.14;44.57;100505.59;5019856;28;20049;-76
2023/06/08 03:55:55;;;;;;;15.18;3.35;;;;;;;23.02;44.82;100513.84;5024024;28;20115;-75
2023/06/08 03:58:24;;;;;;;8.43;2.17;;;;;;;22.93;44.97;100511.38;5016664;28;20793;-72
2023/06/08 04:00:53;;;;;;;11.80;3.15;;;;;;;22.84;45.33;100523.06;5031190;28;20045;-74
2023/06/08 04:03:24;;;;;;;12.95;2.90;;;;;;;22.75;46.58;100532.06;5027190;28;20136;-73
2023/06/08 04:05:56;;;;;;;10.50;2.90;;;;;;;22.65;46.56;100532.31;5020236;28;20060;-75
2023/06/08 04:08:26;;;;;;;12.27;2.72;;;;;;;22.55;47.82;100539.56;5013654;28;20476;-76
2023/06/08 04:10:55;;;;;;;13.13;3.20;;;;;;;22.44;48.11;100538.94;5015969;28;20045;-75
2023/06/08 04:13:23;;;;;;;10.70;2.60;;;;;;;22.32;48.02;100535.69;5013492;28;20057;-77
2023/06/08 04:15:52;;;;;;;12.48;2.42;;;;;;;22.23;48.35;100541.16;5023985;28;20046;-75
2023/06/08 04:18:21;;;;;;;10.90;3.03;;;;;;;22.13;48.42;100539.63;5010830;28;20054;-74
2023/06/08 04:20:50;;;;;;;11.95;2.47;;;;;;;22.01;49.00;100545.97;5010287;28;20054;-73
2023/06/08 04:23:20;;;;;;;10.70;2.40;;;;;;;21.91;48.95;100555.84;5019108;28;20053;-76
2023/06/08 04:25:48;;;;;;;7.57;2.47;;;;;;;21.84;49.26;100561.28;5024302;28;20115;-75
2023/06/08 04:28:17;;;;;;;8.77;2.20;;;;;;;21.74;48.20;100566.75;5025344;28;20616;-75
2023/06/08 04:30:45;;;;;;;10.88;2.40;;;;;;;21.51;48.90;100567.19;5023043;28;20057;-73
2023/06/08 04:33:14;;;;;;;7.68;1.73;;;;;;;21.34;49.17;100579.72;5022493;28;20057;-75
2023/06/08 04:35:43;;;;;;;7.15;1.77;;;;;;;21.11;49.15;100578.34;5026066;28;20107;-76
2023/06/08 04:38:15;;;;;;;12.63;1.85;;;;;;;20.89;49.82;100577.88;5022862;28;20056;-76
2023/06/08 04:40:49;;;;;;;8.15;2.22;;;;;;;20.61;50.96;100587.91;5022587;28;20546;-77
2023/06/08 04:43:20;;;;;;;9.60;2.42;;;;;;;20.39;50.87;100595.22;5023387;28;20107;-79
2023/06/08 04:45:57;;;;;;;7.35;1.48;;;;;;;20.22;51.95;100600.66;5019804;28;20492;-78
2023/06/08 04:48:26;;;;;;;9.02;2.20;;;;;;;20.06;52.77;100604.38;5014472;28;20064;-77
2023/06/08 04:50:55;;;;;;;13.13;2.28;;;;;;;19.96;53.17;100602.75;5009040;28;20814;-78
2023/06/08 04:53:23;;;;;;;8.52;2.03;;;;;;;19.88;53.37;100610.72;5014935;28;20112;-74
2023/06/08 04:55:57;;;;;;;10.70;2.45;;;;;;;19.80;53.47;100602.94;5024440;28;20115;-75
2023/06/08 04:58:25;;;;;;;10.50;2.50;;;;;;;19.81;53.90;100609.03;5018797;28;20049;-76
2023/06/08 05:00:54;;;;;;;12.23;1.85;;;;;;;19.76;54.06;100609.09;5016950;28;20133;-76
2023/06/08 05:03:23;;;;;;;10.48;2.25;;;;;;;19.55;54.43;100617.16;5014122;28;20049;-76
2023/06/08 05:05:52;;;;;;;8.30;2.17;;;;;;;19.44;54.91;100622.50;5020800;28;20099;-75
2023/06/08 05:08:20;;;;;;;13.43;2.08;;;;;;;19.33;55.16;100633.09;5022153;28;20053;-75
2023/06/08 05:10:49;;;;;;;13.18;2.55;;;;;;;19.24;55.23;100638.41;5011908;28;20046;-74
2023/06/08 05:13:19;;;;;;;7.90;1.52;;;;;;;19.16;55.65;100638.47;5021240;28;20041;-74
2023/06/08 05:15:48;;;;;;;7.20;1.70;;;;;;;19.10;55.44;100635.03;5023547;28;20053;-75
2023/06/08 05:18:16;;;;;;;9.48;2.65;;;;;;;19.05;55.41;100646.41;5017431;28;20099;-71
2023/06/08 05:20:45;;;;;;;6.25;2.30;;;;;;;18.96;55.88;100638.63;5010466;28;20054;-72
2023/06/08 05:23:14;;;;;;;13.20;2.15;;;;;;;18.86;56.16;100650.06;5014673;28;20056;-76
2023/06/08 05:25:42;;;;;;;9.18;1.80;;;;;;;18.80;56.14;100650.09;5022404;28;20049;-72
2023/06/08 05:28:11;;;;;;;9.88;1.95;;;;;;;18.77;56.86;100657.97;5023885;28;20588;-72
2023/06/08 05:30:41;;;;;;;14.40;2.58;;;;;;;18.69;58.11;100658.00;5026180;28;20088;-73
2023/06/08 05:33:10;;;;;;;15.30;2.20;;;;;;;18.61;58.76;100657.16;5025799;28;20400;-74
2023/06/08 05:35:38;;;;;;;8.18;2.20;;;;;;;18.51;58.95;100661.56;5020309;28;20050;-75
2023/06/08 05:38:07;;;;;;;11.48;2.30;;;;;;;18.38;58.99;100671.22;5025412;28;20050;-73
2023/06/08 05:40:39;;;;;;;6.85;1.83;;;;;;;18.27;60.13;100672.13;5025551;28;20128;-74
2023/06/08 05:43:07;;;;;;;11.38;2.42;;;;;;;18.17;63.33;100672.19;5024309;28;20681;-74
2023/06/08 05:45:36;;;;;;;8.18;2.13;;;;;;;18.16;60.83;100678.31;5020349;28;20068;-72
2023/06/08 05:48:08;;;;;;;9.40;2.17;;;;;;;18.09;62.47;100678.31;5024202;28;20045;-73
2023/06/08 05:50:39;;;;;;;4.20;1.50;;;;;;;17.95;61.40;100680.94;5022401;28;20042;-73
2023/06/08 05:53:07;;;;;;;12.82;2.22;;;;;;;17.82;62.76;100680.13;5022659;28;20057;-73
2023/06/08 05:55:36;;;;;;;10.50;1.88;;;;;;;17.77;61.66;100685.31;5022915;28;20100;-71
2023/06/08 05:58:05;;;;;;;10.60;2.28;;;;;;;17.73;61.92;100693.16;5022840;28;20132;-72
2023/06/08 06:00:33;;;;;;;9.10;2.03;;;;;;;17.65;62.77;100700.16;5024070;28;20145;-72
2023/06/08 06:03:06;;;;;;;10.60;3.08;;;;;;;17.54;62.53;100698.41;5028298;28;20111;-72
2023/06/08 06:05:34;;;;;;;12.40;1.90;;;;;;;17.40;63.25;100707.13;5024264;28;20088;-72
2023/06/08 06:08:03;;;;;;;9.40;2.38;;;;;;;17.27;64.26;100712.34;5022138;28;20045;-73
2023/06/08 06:10:31;;;;;;;9.70;1.90;;;;;;;17.16;64.62;100722.78;5025623;28;20045;-74
2023/06/08 06:13:00;;;;;;;14.20;2.13;;;;;;;17.11;64.48;100726.25;5023096;28;20132;-74
2023/06/08 06:15:29;;;;;;;9.75;1.95;;;;;;;17.04;65.45;100727.09;5023978;28;20057;-73
2023/06/08 06:17:58;;;;;;;8.10;1.90;;;;;;;16.99;65.13;100726.22;5024881;28;20401;-74
2023/06/08 06:20:29;;;;;;;5.75;1.83;;;;;;;16.94;65.83;100729.69;5027836;28;20049;-73
2023/06/08 06:22:58;;;;;;;8.57;1.92;;;;;;;16.90;66.17;100748.84;5031891;28;20041;-73
2023/06/08 06:25:28;;;;;;;6.93;1.60;;;;;;;16.79;66.71;100745.34;5028878;28;20052;-73
2023/06/08 06:27:57;;;;;;;7.85;1.52;;;;;;;16.71;67.28;100752.22;5025987;28;20080;-73
2023/06/08 06:30:26;;;;;;;7.03;1.63;;;;;;;16.58;67.72;100753.03;5024125;28;20270;-73
2023/06/08 06:32:54;;;;;;;11.52;2.30;;;;;;;16.51;68.44;100755.59;5026906;28;20502;-73
2023/06/08 06:35:23;;;;;;;9.90;1.83;;;;;;;16.47;68.51;100748.66;5023117;28;20050;-73
2023/06/08 06:37:56;;;;;;;10.52;2.72;;;;;;;16.46;67.98;100746.88;5025073;28;20041;-74
2023/06/08 06:40:25;;;;;;;10.30;1.88;;;;;;;16.46;68.05;100752.09;5025761;28;20050;-72
2023/06/08 06:42:53;;;;;;;9.68;2.00;;;;;;;16.46;68.42;100759.06;5025675;28;20050;-72
2023/06/08 06:45:22;;;;;;;11.20;1.90;;;;;;;16.40;69.88;100764.25;5018722;28;20075;-75
2023/06/08 06:47:51;;;;;;;9.55;1.85;;;;;;;16.30;70.12;100768.56;5029257;28;20099;-73
2023/06/08 06:50:19;;;;;;;10.45;2.17;;;;;;;16.25;70.16;100773.75;5023267;28;20057;-72
2023/06/08 06:52:48;;;;;;;5.72;1.75;;;;;;;16.24;70.39;100771.13;5024163;28;20054;-75
2023/06/08 06:55:18;;;;;;;9.13;2.25;;;;;;;16.22;69.84;100772.88;5026502;28;20045;-75
2023/06/08 06:57:48;;;;;;;8.45;2.33;;;;;;;16.23;69.50;100774.59;5026222;28;20495;-73
2023/06/08 07:00:17;;;;;;;4.40;2.70;;;;;;;16.21;69.73;100782.41;5025223;28;20061;-73
2023/06/08 07:02:46;;;;;;;6.28;1.92;;;;;;;16.19;69.32;100786.75;5028636;28;20111;-73
2023/06/08 07:05:14;;;;;;;12.77;2.25;;;;;;;16.18;69.23;100785.00;5024236;28;20462;-73
2023/06/08 07:07:43;;;;;;;9.30;1.73;;;;;;;16.15;69.27;100782.41;5023610;28;20487;-72
2023/06/08 07:10:15;;;;;;;5.65;1.70;;;;;;;16.15;69.66;100792.84;5025513;28;20676;-73
2023/06/08 07:12:45;;;;;;;5.10;2.10;;;;;;;16.12;69.86;100809.31;5019926;28;20049;-73
2023/06/08 07:15:13;;;;;;;6.00;1.73;;;;;;;16.09;70.27;100809.31;5026210;28;20068;-73
2023/06/08 07:17:44;;;;;;;7.68;2.17;;;;;;;16.09;70.64;100806.69;5023197;28;20045;-73
2023/06/08 07:20:12;;;;;;;7.22;2.47;;;;;;;16.10;70.91;100821.53;5028918;28;20639;-72
2023/06/08 07:22:41;;;;;;;9.00;1.88;;;;;;;16.08;70.33;100811.91;5023786;28;20558;-73
2023/06/08 07:25:10;;;;;;;10.05;2.20;;;;;;;16.07;70.99;100825.81;5028211;28;20057;-73
2023/06/08 07:27:39;;;;;;;6.18;1.58;;;;;;;15.99;71.06;100817.94;5024657;28;20057;-72
2023/06/08 07:30:10;;;;;;;10.77;1.92;;;;;;;15.97;72.35;100819.66;5018406;28;20425;-72
2023/06/08 07:32:39;;;;;;;4.85;1.77;;;;;;;15.92;72.39;100831.81;5005822;28;20057;-73
2023/06/08 07:35:08;;;;;;;6.93;1.95;;;;;;;15.88;72.08;100823.06;5007218;28;20062;-72
2023/06/08 07:37:37;;;;;;;7.40;1.85;;;;;;;15.88;72.32;100827.41;5010920;28;20065;-72
2023/06/08 07:40:08;;;;;;;11.50;2.60;;;;;;;15.87;71.88;100828.25;5010073;28;20145;-72
2023/06/08 07:42:36;;;;;;;11.20;2.05;;;;;;;15.85;72.72;100827.38;5009146;28;20471;-72
2023/06/08 07:45:06;;;;;;;9.40;1.70;;;;;;;15.85;72.37;100827.38;5006313;28;20062;-72
2023/06/08 07:47:36;;;;;;;11.18;2.40;;;;;;;15.79;72.81;100819.50;5002166;28;20042;-72
2023/06/08 07:50:05;;;;;;;6.13;2.08;;;;;;;15.74;73.24;100816.00;5003925;28;20049;-72
2023/06/08 07:52:34;;;;;;;5.75;1.90;;;;;;;15.69;73.40;100814.16;5004154;28;20060;-72
2023/06/08 07:55:02;;;;;;;2.55;1.10;;;;;;;15.68;73.02;100820.22;4999472;28;20053;-72
2023/06/08 07:57:36;;;;;;;7.68;2.30;;;;;;;15.66;73.31;100821.94;5011261;28;20550;-73
2023/06/08 08:00:05;;;;;;;4.50;1.20;;;;;;;15.62;73.84;100825.41;5005486;28;20074;-73
2023/06/08 08:02:36;;;;;;;7.72;2.00;;;;;;;15.59;73.01;100821.88;5003696;28;20084;-74
2023/06/08 08:05:04;;;;;;;10.40;1.90;;;;;;;15.57;73.45;100827.06;5006031;28;20069;-74
2023/06/08 08:07:33;;;;;;;6.65;1.70;;;;;;;15.54;73.30;100829.66;5003789;28;20042;-73
2023/06/08 08:10:02;;;;;;;8.88;1.50;;;;;;;15.55;73.72;100846.16;5006519;28;20061;-73
2023/06/08 08:12:30;;;;;;;11.13;2.03;;;;;;;15.51;73.29;100845.28;5002948;28;20138;-72
2023/06/08 08:15:00;;;;;;;6.55;1.77;;;;;;;15.49;72.92;100841.78;5008165;28;20054;-72
2023/06/08 08:17:29;;;;;;;8.20;1.83;;;;;;;15.46;73.30;100847.84;5009785;28;20046;-73
2023/06/08 08:20:03;;;;;;;9.38;2.30;;;;;;;15.40;73.30;100852.97;5005920;28;20388;-73
2023/06/08 08:22:32;;;;;;;9.07;1.85;;;;;;;15.33;73.77;100860.72;5003361;28;20045;-72
2023/06/08 08:25:01;;;;;;;8.40;2.00;;;;;;;15.28;73.70;100866.75;5011755;28;20053;-71
2023/06/08 08:27:30;;;;;;;8.60;2.00;;;;;;;15.23;74.15;100860.63;5005270;28;20763;-73
2023/06/08 08:29:58;;;;;;;3.78;1.40;;;;;;;15.22;73.36;100864.06;5013670;28;20063;-72
2023/06/08 08:32:27;;;;;;;8.77;1.65;;;;;;;15.18;75.06;100866.59;5024080;28;20104;-72
2023/06/08 08:34:55;;;;;;;9.77;2.22;;;;;;;15.11;75.67;100868.25;5026057;28;20045;-72
2023/06/08 08:37:25;;;;;;;10.73;2.22;;;;;;;15.06;75.97;100864.72;5022920;28;20050;-73
2023/06/08 08:39:54;;;;;;;6.10;2.08;;;;;;;15.05;75.42;100868.19;5027112;28;20053;-73
2023/06/08 08:42:28;;;;;;;3.58;1.88;;;;;;;15.06;75.41;100877.75;5021536;28;20275;-73
2023/06/08 08:45:00;;;;;;;4.78;1.40;;;;;;;15.10;75.62;100883.91;5026257;28;20069;-72
2023/06/08 08:47:30;;;;;;;4.37;1.30;;;;;;;15.08;76.10;100881.25;5021785;28;20057;-71
2023/06/08 08:50:03;;;;;;;6.35;1.67;;;;;;;15.06;75.67;100876.03;5020660;28;20046;-72
2023/06/08 08:52:37;;;;;;;5.68;1.60;;;;;;;15.07;75.83;100872.56;5024423;28;20045;-73
2023/06/08 08:55:06;;;;;;;8.70;2.00;;;;;;;15.08;75.70;100870.84;5025579;28;20081;-73
2023/06/08 08:57:35;;;;;;;9.57;1.77;;;;;;;15.05;75.51;100878.63;5018391;28;20054;-73
2023/06/08 09:00:06;;;;;;;7.40;1.88;;;;;;;14.99;76.11;100886.34;5022389;28;20045;-72
2023/06/08 09:02:36;;;;;;;9.77;2.17;;;;;;;14.93;76.12;100891.47;5017539;28;20077;-73
2023/06/08 09:05:06;;;;;;;10.48;2.00;;;;;;;14.93;75.91;100894.06;5022299;28;20045;-72
2023/06/08 09:07:37;;;;;;;8.05;1.80;;;;;;;14.91;76.39;100901.00;5023741;28;20715;-72
2023/06/08 09:10:16;;;;;;;7.78;2.20;;;;;;;14.89;76.61;100906.19;5023051;28;20041;-73
2023/06/08 09:12:46;;;;;;;9.63;2.03;;;;;;;14.87;77.13;100913.97;5023688;28;20053;-72
2023/06/08 09:15:26;;;;;;;9.63;1.75;;;;;;;14.80;76.95;100919.97;5023775;28;20615;-73
2023/06/08 09:17:55;;;;;;;11.80;2.35;;;;;;;14.75;77.68;100916.41;5020085;28;20148;-73
2023/06/08 09:20:34;;;;;;;6.60;1.48;;;;;;;14.69;77.79;100916.31;5021042;28;20049;-72
2023/06/08 09:23:16;;;;;;;6.80;2.10;;;;;;;14.67;78.18;100918.03;5017849;28;20046;-73
2023/06/08 09:25:46;;;;;;;4.57;1.90;;;;;;;14.64;78.27;100921.47;5024483;28;20053;-73
2023/06/08 09:28:25;;;;;;;6.95;1.40;;;;;;;14.62;78.09;100917.09;5019935;28;20124;-73
2023/06/08 09:30:55;;;;;;;9.52;1.63;;;;;;;14.61;78.48;100921.41;5021304;28;20531;-73
2023/06/08 09:33:25;;;;;;;12.90;1.88;;;;;;;14.59;77.91;100922.22;5022316;28;20132;-72
2023/06/08 09:36:15;;;;;;;8.73;1.92;;;;;;;14.51;78.64;100926.41;5025449;28;20802;-72
2023/06/08 09:38:47;;;;;;;5.13;1.80;;;;;;;14.45;78.98;100925.47;5026458;28;20045;-72
2023/06/08 09:41:17;;;;;;;6.82;1.75;;;;;;;14.36;78.68;100914.91;5025732;28;20045;-74
2023/06/08 09:43:47;;;;;;;9.88;1.90;;;;;;;14.40;78.47;100934.91;5026800;28;20060;-72
2023/06/08 09:46:32;;;;;;;11.45;1.77;;;;;;;14.35;79.29;100931.38;5024504;28;20042;-73
2023/06/08 09:49:13;;;;;;;11.00;1.95;;;;;;;14.30;79.33;100929.53;5026168;28;20431;-72
2023/06/08 09:51:46;;;;;;;6.68;1.52;;;;;;;14.31;79.58;100929.56;5026776;28;20112;-72
2023/06/08 09:54:17;;;;;;;6.00;1.38;;;;;;;14.29;79.76;100928.66;5027101;28;20725;-74
2023/06/08 09:56:51;;;;;;;14.82;2.35;;;;;;;14.23;79.08;100929.44;5024619;28;20061;-72
2023/06/08 09:59:21;;;;;;;9.35;1.77;;;;;;;14.20;79.63;100934.59;5027048;28;20049;-73
2023/06/08 10:01:55;;;;;;;7.65;1.90;;;;;;;14.15;80.39;100940.56;5027314;28;20916;-73
2023/06/08 10:04:28;;;;;;;9.13;2.15;;;;;;;14.09;80.13;100930.91;5027813;28;20050;-72
2023/06/08 10:06:58;;;;;;;6.45;2.00;;;;;;;14.04;80.74;100932.53;5026308;28;20136;-72
2023/06/08 10:09:30;;;;;;;11.05;1.80;;;;;;;14.02;81.21;100937.72;5024659;28;20719;-73
2023/06/08 10:11:59;;;;;;;9.75;1.48;;;;;;;14.02;80.88;100939.47;5028021;28;20534;-73
2023/06/08 10:14:28;;;;;;;6.65;1.92;;;;;;;13.97;80.98;100944.59;5025313;28;20053;-71
2023/06/08 10:16:58;;;;;;;9.38;1.83;;;;;;;13.94;81.40;100939.31;5027421;28;20057;-73
2023/06/08 10:19:27;;;;;;;9.23;2.75;;;;;;;13.96;81.20;100944.53;5023774;28;20073;-72
2023/06/08 10:21:58;;;;;;;8.63;1.67;;;;;;;13.97;81.20;100948.88;5029550;28;20042;-72
2023/06/08 10:24:30;;;;;;;8.98;1.98;;;;;;;13.94;81.17;100947.09;5025423;28;20049;-73
2023/06/08 10:27:29;;;;;;;5.72;1.73;;;;;;;13.90;82.09;100950.50;5027936;28;20064;-73
2023/06/08 10:30:03;;;;;;;7.30;1.88;;;;;;;13.84;81.74;100945.19;5025862;28;20060;-73
2023/06/08 10:32:32;;;;;;;7.47;1.83;;;;;;;13.79;82.13;100942.50;5027918;28;20094;-73
2023/06/08 10:35:04;;;;;;;7.07;1.67;;;;;;;13.73;82.28;100951.91;5026077;28;20053;-72
2023/06/08 10:37:36;;;;;;;9.13;2.00;;;;;;;13.67;82.95;100947.44;5025262;28;20147;-73
2023/06/08 10:40:12;;;;;;;9.55;1.95;;;;;;;13.66;83.32;100944.84;5025701;28;20764;-73
2023/06/08 10:42:54;;;;;;;7.13;1.48;;;;;;;13.62;82.87;100939.56;5025115;28;20119;-73
2023/06/08 10:45:33;;;;;;;7.50;1.90;;;;;;;13.64;82.84;100941.34;5028108;28;20050;-73
2023/06/08 10:48:05;;;;;;;9.95;2.00;;;;;;;13.61;83.24;100943.03;5026479;28;20095;-72
2023/06/08 10:50:38;;;;;;;8.35;1.73;;;;;;;13.55;83.63;100948.09;5026447;28;20119;-73
2023/06/08 10:53:07;;;;;;;8.43;2.28;;;;;;;13.48;84.29;100943.59;5022635;28;20053;-74
2023/06/08 10:55:38;;;;;;;8.57;2.13;;;;;;;13.42;84.61;100951.28;5027070;28;20053;-73
2023/06/08 10:58:18;;;;;;;6.07;1.85;;;;;;;13.34;85.39;100952.84;5025037;28;20053;-73
2023/06/08 11:00:50;;;;;;;10.50;2.28;;;;;;;13.28;85.42;100950.09;5027003;28;20056;-73
2023/06/08 11:03:23;;;;;;;6.07;1.60;;;;;;;13.23;85.73;100944.78;5023815;28;20054;-73
2023/06/08 11:05:53;;;;;;;6.85;1.50;;;;;;;13.21;86.30;100946.47;5022227;28;20132;-72
2023/06/08 11:08:22;;;;;;;9.60;2.50;;;;;;;13.21;86.42;100956.84;5025329;28;20057;-72
2023/06/08 11:11:10;;;;;;;5.88;1.75;;;;;;;13.21;85.82;100956.84;5025748;28;20313;-73
2023/06/08 11:13:39;;;;;;;14.68;2.10;;;;;;;13.21;86.39;100959.47;5025727;28;20056;-72
2023/06/08 11:16:07;;;;;;;7.22;1.85;;;;;;;13.19;87.08;100953.34;5027564;28;20531;-73
2023/06/08 11:18:36;;;;;;;12.10;1.60;;;;;;;13.18;86.74;100957.66;5029226;28;20053;-73
2023/06/08 11:21:05;;;;;;;7.03;1.60;;;;;;;13.21;86.24;100962.94;5023480;28;20046;-73
2023/06/08 11:23:34;;;;;;;6.05;1.50;;;;;;;13.22;85.89;100963.81;5020871;28;20128;-72
2023/06/08 11:26:05;;;;;;;11.98;1.80;;;;;;;13.25;85.87;100973.41;5022999;28;20049;-72
2023/06/08 11:28:34;;;;;;;4.15;1.75;;;;;;;13.24;85.38;100976.81;5023728;28;20046;-73
2023/06/08 11:31:09;;;;;;;15.10;2.47;;;;;;;13.24;85.99;100982.03;5023115;28;20481;-72
2023/06/08 11:33:49;;;;;;;6.32;1.52;;;;;;;13.21;86.18;100983.72;5015553;28;20041;-73
2023/06/08 11:36:18;;;;;;;6.93;2.20;;;;;;;13.23;86.06;100978.56;5029326;28;20056;-72
2023/06/08 11:38:46;;;;;;;8.57;1.85;;;;;;;13.23;85.72;100981.16;5020201;28;20103;-72